Time;durP1;ratioP1;P1;durP2;ratioP2;P2;SDS_P1;SDS_P2;PMS_P1;PMS_P2;Temp;Humidity;BMP_temperature;BMP_pressure;BME280_temperature;BME280_humidity;BME280_pressure;Samples;Min_cycle;Max_cycle;Signal;HPM_P1;HPM_P2
2023/10/20 00:01:45;;;;;;;44.70;31.20;;;;;;;9.11;100.00;97025.43;272342;1272;23269;-81
2023/10/20 00:07:46;;;;;;;45.60;32.10;;;;;;;9.14;100.00;97039.75;272327;1272;22465;-81
2023/10/20 00:13:48;;;;;;;45.70;31.00;;;;;;;9.15;100.00;97057.35;272363;1271;22536;-82
2023/10/20 00:19:51;;;;;;;52.50;33.60;;;;;;;9.12;100.00;97052.40;272537;1264;23459;-81
2023/10/20 00:25:52;;;;;;;44.30;31.20;;;;;;;9.11;100.00;97038.77;272550;1271;22413;-81
2023/10/20 00:31:54;;;;;;;44.40;33.20;;;;;;;9.10;100.00;97031.36;272512;1270;22260;-81
2023/10/20 00:37:56;;;;;;;51.60;35.80;;;;;;;9.07;100.00;97029.55;271485;1272;23884;-81
2023/10/20 00:43:58;;;;;;;51.50;34.80;;;;;;;9.07;100.00;97029.55;270872;1272;22533;-81
2023/10/20 00:50:00;;;;;;;49.00;34.20;;;;;;;9.09;100.00;97023.73;272771;1272;22418;-82
2023/10/20 00:56:04;;;;;;;51.80;35.80;;;;;;;9.09;100.00;97019.67;271544;1272;22876;-82
2023/10/20 01:02:09;;;;;;;51.20;34.90;;;;;;;9.09;100.00;97006.59;271226;1272;22431;-82
2023/10/20 01:08:13;;;;;;;50.30;35.40;;;;;;;9.10;100.00;97005.17;273053;1272;22204;-82
2023/10/20 01:14:21;;;;;;;56.90;38.90;;;;;;;9.13;100.00;97002.24;272896;1272;22488;-81
2023/10/20 01:20:23;;;;;;;53.90;38.20;;;;;;;9.14;100.00;96995.76;273100;1279;22272;-81
2023/10/20 01:26:26;;;;;;;56.40;37.90;;;;;;;9.15;100.00;96996.20;273001;1272;22239;-81
2023/10/20 01:32:28;;;;;;;54.00;39.30;;;;;;;9.16;100.00;96988.63;272494;1272;23137;-82
2023/10/20 01:38:37;;;;;;;53.60;38.10;;;;;;;9.17;100.00;96969.80;272025;1272;22704;-82
2023/10/20 01:44:41;;;;;;;49.60;35.60;;;;;;;9.15;100.00;96950.27;272854;1272;22349;-82
2023/10/20 01:50:43;;;;;;;52.30;38.20;;;;;;;9.13;100.00;96951.77;272767;1272;23408;-82
2023/10/20 01:56:48;;;;;;;59.60;38.20;;;;;;;9.13;100.00;96946.02;273035;1276;22300;-82
2023/10/20 02:02:50;;;;;;;53.00;37.90;;;;;;;9.12;100.00;96936.04;272996;1280;22274;-81
2023/10/20 02:08:53;;;;;;;52.20;37.30;;;;;;;9.13;100.00;96934.23;271113;1272;22550;-81
2023/10/20 02:14:57;;;;;;;48.80;34.80;;;;;;;9.17;100.00;96928.33;270766;1272;22646;-81
2023/10/20 02:21:04;;;;;;;58.30;39.60;;;;;;;9.18;100.00;96918.48;270084;1262;23261;-81
2023/10/20 02:27:11;;;;;;;36.30;25.30;;;;;;;9.18;100.00;96909.36;270323;1272;22152;-81
2023/10/20 02:33:13;;;;;;;50.80;35.00;;;;;;;9.17;100.00;96906.26;271639;1272;22642;-81
2023/10/20 02:39:22;;;;;;;48.30;33.00;;;;;;;9.18;100.00;96919.88;271326;1271;23676;-81
2023/10/20 02:45:24;;;;;;;50.70;34.80;;;;;;;9.17;100.00;96928.25;271463;1272;22551;-81
2023/10/20 02:51:26;;;;;;;51.50;35.10;;;;;;;9.15;100.00;96915.95;271485;1264;22228;-81
2023/10/20 02:57:27;;;;;;;48.10;32.70;;;;;;;9.16;100.00;96905.88;271090;1272;22662;-82
2023/10/20 03:03:30;;;;;;;42.70;30.90;;;;;;;9.19;100.00;96900.45;270922;1268;22605;-81
2023/10/20 03:09:31;;;;;;;43.50;31.40;;;;;;;9.19;100.00;96908.79;272233;1271;23726;-81
2023/10/20 03:15:33;;;;;;;55.70;35.70;;;;;;;9.15;100.00;96904.80;272480;1272;22999;-81
2023/10/20 03:21:38;;;;;;;47.40;32.30;;;;;;;9.14;100.00;96900.91;270532;1272;22593;-82
2023/10/20 03:27:39;;;;;;;46.30;30.80;;;;;;;9.15;100.00;96894.27;271494;1272;26354;-82
2023/10/20 03:33:42;;;;;;;45.60;30.30;;;;;;;9.20;100.00;96878.05;272212;1272;22177;-81
2023/10/20 03:39:44;;;;;;;44.20;29.30;;;;;;;9.21;100.00;96860.16;272911;1272;22202;-81
2023/10/20 03:45:52;;;;;;;46.00;29.40;;;;;;;9.23;100.00;96855.83;272582;1272;22399;-81
2023/10/20 03:51:53;;;;;;;53.10;29.40;;;;;;;9.26;100.00;96854.71;271192;1272;1135053;-81
2023/10/20 03:57:56;;;;;;;43.50;28.60;;;;;;;9.29;100.00;96856.13;270761;1272;22450;-82
2023/10/20 04:03:58;;;;;;;41.00;28.90;;;;;;;9.34;100.00;96847.30;271986;1272;22443;-83
2023/10/20 04:10:01;;;;;;;43.80;28.10;;;;;;;9.38;100.00;96840.98;270327;1272;23818;-81
2023/10/20 04:16:14;;;;;;;43.10;29.50;;;;;;;9.42;100.00;96847.16;271845;1272;23304;-81
2023/10/20 04:22:16;;;;;;;41.50;26.70;;;;;;;9.45;100.00;96843.89;272467;1272;22373;-81
2023/10/20 04:28:35;;;;;;;45.70;29.90;;;;;;;9.48;100.00;96838.45;272352;1266;22374;-81
2023/10/20 04:41:54;;;;;;;50.10;30.70;;;;;;;9.51;100.00;96831.67;272383;1272;22364;-82
2023/10/20 04:53:53;;;;;;;40.50;25.90;;;;;;;9.57;100.00;96830.63;272306;1272;23218;-82
2023/10/20 05:06:44;;;;;;;44.70;27.10;;;;;;;9.64;100.00;96826.61;271205;1279;22441;-83
2023/10/20 05:12:47;;;;;;;44.70;26.70;;;;;;;9.64;100.00;96836.98;271007;1272;22535;-82
2023/10/20 05:18:49;;;;;;;49.30;28.70;;;;;;;9.65;100.00;96837.36;272165;1272;22426;-82
2023/10/20 05:24:52;;;;;;;53.10;30.70;;;;;;;9.66;100.00;96835.61;271992;1272;22398;-80
2023/10/20 05:30:54;;;;;;;47.80;28.20;;;;;;;9.70;100.00;96833.05;272125;1266;25258;-81
2023/10/20 05:37:03;;;;;;;44.80;29.00;;;;;;;9.73;100.00;96838.83;271681;1272;22374;-81
2023/10/20 05:43:05;;;;;;;45.00;26.70;;;;;;;9.76;100.00;96831.20;272406;1272;22488;-81
2023/10/20 05:49:08;;;;;;;45.30;27.00;;;;;;;9.81;100.00;96836.17;272902;1272;22180;-81
2023/10/20 05:55:10;;;;;;;43.80;26.20;;;;;;;9.88;100.00;96835.79;272221;1272;22379;-82
2023/10/20 06:01:12;;;;;;;39.90;25.90;;;;;;;9.94;100.00;96835.52;272263;1272;22371;-81
2023/10/20 06:07:14;;;;;;;40.20;25.30;;;;;;;9.99;100.00;96833.61;272096;1272;22164;-81
2023/10/20 06:13:18;;;;;;;39.70;24.80;;;;;;;10.04;100.00;96830.53;271764;1272;22393;-82
2023/10/20 06:19:22;;;;;;;36.30;23.70;;;;;;;10.08;100.00;96822.96;272245;1272;22408;-83
2023/10/20 06:25:24;;;;;;;39.50;24.20;;;;;;;10.14;100.00;96822.24;272117;1272;22548;-81
2023/10/20 06:37:46;;;;;;;33.90;23.30;;;;;;;10.25;100.00;96816.67;272055;1272;23555;-81
2023/10/20 06:43:50;;;;;;;35.10;23.30;;;;;;;10.31;100.00;96818.87;271918;1272;22192;-81
2023/10/20 06:49:55;;;;;;;38.50;23.50;;;;;;;10.35;100.00;96826.74;272607;1272;22186;-81
2023/10/20 06:55:58;;;;;;;35.60;23.50;;;;;;;10.39;100.00;96822.45;272317;1272;23256;-83
2023/10/20 07:02:28;;;;;;;31.90;21.40;;;;;;;10.44;100.00;96814.13;272324;1275;22690;-81
2023/10/20 07:08:30;;;;;;;35.60;22.70;;;;;;;10.56;100.00;96809.86;272223;1272;22229;-81
2023/10/20 07:14:34;;;;;;;34.90;21.70;;;;;;;10.71;100.00;96798.48;271825;1272;22395;-81
2023/10/20 07:21:02;;;;;;;29.80;21.70;;;;;;;10.84;100.00;96783.13;271700;1272;22371;-82
2023/10/20 07:27:05;;;;;;;33.00;21.00;;;;;;;10.94;100.00;96776.86;271721;1272;22358;-81
2023/10/20 07:33:12;;;;;;;26.30;18.60;;;;;;;11.04;100.00;96784.42;271671;1272;22400;-82
2023/10/20 07:39:16;;;;;;;28.00;20.50;;;;;;;11.16;100.00;96776.36;272424;1272;23601;-81
2023/10/20 07:45:20;;;;;;;28.30;19.90;;;;;;;11.29;100.00;96767.80;272475;1272;22233;-82
2023/10/20 07:51:22;;;;;;;27.70;18.70;;;;;;;11.40;100.00;96755.98;272252;1272;22401;-82
2023/10/20 07:57:27;;;;;;;26.90;18.80;;;;;;;11.48;100.00;96749.42;272594;1272;22263;-81
2023/10/20 08:03:30;;;;;;;29.80;18.90;;;;;;;11.58;100.00;96744.05;272299;1272;22386;-81
2023/10/20 08:09:36;;;;;;;25.70;19.00;;;;;;;11.68;100.00;96742.08;272487;1271;22283;-82
2023/10/20 08:15:42;;;;;;;28.40;17.40;;;;;;;11.80;100.00;96734.66;272395;1272;22379;-82
2023/10/20 08:21:45;;;;;;;24.40;17.60;;;;;;;11.96;100.00;96731.13;272424;1272;22204;-81
2023/10/20 08:27:47;;;;;;;22.60;16.10;;;;;;;12.10;100.00;96728.27;272258;1264;22369;-81
2023/10/20 08:33:52;;;;;;;23.60;16.60;;;;;;;12.21;100.00;96723.55;272834;1272;22556;-81
2023/10/20 08:40:10;;;;;;;23.80;15.50;;;;;;;12.28;100.00;96699.88;271543;1272;23584;-81
2023/10/20 08:46:16;;;;;;;22.90;16.40;;;;;;;12.34;100.00;96702.89;271797;1270;23037;-81
2023/10/20 08:52:23;;;;;;;21.80;15.50;;;;;;;12.42;100.00;96710.56;273085;1279;22187;-81
2023/10/20 08:58:29;;;;;;;21.10;14.60;;;;;;;12.47;100.00;96710.80;272525;1265;22293;-81
2023/10/20 09:04:32;;;;;;;21.00;14.00;;;;;;;12.52;100.00;96697.73;272450;1272;22448;-82
2023/10/20 09:10:33;;;;;;;18.80;14.10;;;;;;;12.61;100.00;96698.87;272354;1267;22479;-82
2023/10/20 09:16:35;;;;;;;22.20;13.80;;;;;;;12.69;100.00;96702.05;272308;1266;23272;-81
2023/10/20 09:22:38;;;;;;;24.40;14.20;;;;;;;12.78;100.00;96690.38;272554;1272;22302;-81
2023/10/20 09:28:47;;;;;;;22.80;14.20;;;;;;;12.88;100.00;96679.45;272485;1272;22284;-83
2023/10/20 09:34:55;;;;;;;22.30;14.50;;;;;;;12.98;100.00;96681.94;272602;1273;22181;-82
2023/10/20 09:41:11;;;;;;;23.10;14.20;;;;;;;13.08;100.00;96665.10;272708;1272;22346;-82
2023/10/20 09:47:23;;;;;;;20.80;14.10;;;;;;;13.32;100.00;96654.65;272503;1272;22405;-81
2023/10/20 09:53:26;;;;;;;23.10;15.80;;;;;;;13.78;100.00;96654.93;271596;1272;22426;-82
2023/10/20 09:59:27;;;;;;;22.70;14.30;;;;;;;13.99;100.00;96654.52;272545;1272;22166;-82
2023/10/20 10:05:33;;;;;;;22.40;16.30;;;;;;;14.14;100.00;96633.49;271877;1272;22809;-84
2023/10/20 10:11:41;;;;;;;23.40;13.10;;;;;;;14.38;100.00;96619.65;272190;1260;22488;-82
2023/10/20 10:17:52;;;;;;;22.70;14.20;;;;;;;14.63;100.00;96609.74;272319;1272;22356;-82
2023/10/20 10:24:08;;;;;;;18.60;12.90;;;;;;;14.89;100.00;96603.60;272548;1272;22218;-81
2023/10/20 10:30:14;;;;;;;18.40;12.90;;;;;;;15.20;100.00;96607.09;272212;1272;22410;-81
2023/10/20 10:36:20;;;;;;;17.00;11.30;;;;;;;15.69;100.00;96597.45;272262;1272;22419;-82
2023/10/20 10:42:27;;;;;;;15.40;11.30;;;;;;;16.21;100.00;96582.99;272423;1272;21718;-82
2023/10/20 10:48:33;;;;;;;13.80;10.60;;;;;;;16.47;100.00;96582.52;272381;1271;22254;-82
2023/10/20 10:54:39;;;;;;;16.90;10.90;;;;;;;16.47;100.00;96581.02;272144;1272;22504;-83
2023/10/20 11:00:44;;;;;;;16.40;11.60;;;;;;;16.34;100.00;96581.98;272290;1270;22419;-81
2023/10/20 11:06:49;;;;;;;16.60;10.80;;;;;;;16.24;100.00;96588.31;271455;1272;22431;-81
2023/10/20 11:12:51;;;;;;;15.80;10.50;;;;;;;16.17;100.00;96588.42;272078;1270;22281;-81
2023/10/20 11:19:01;;;;;;;16.40;11.30;;;;;;;16.13;100.00;96600.14;272455;1272;22394;-81
2023/10/20 11:25:05;;;;;;;20.30;10.60;;;;;;;16.08;100.00;96611.57;271096;1271;23821;-81
2023/10/20 11:31:08;;;;;;;17.10;10.80;;;;;;;16.06;100.00;96617.04;271050;1272;23928;-82
2023/10/20 11:37:11;;;;;;;18.80;10.90;;;;;;;16.04;100.00;96621.45;271925;1272;22553;-81
2023/10/20 11:43:13;;;;;;;16.30;11.40;;;;;;;16.07;100.00;96625.64;271981;1272;22375;-83
2023/10/20 11:49:15;;;;;;;20.50;11.80;;;;;;;16.08;100.00;96624.81;272196;1272;22179;-81
2023/10/20 11:55:18;;;;;;;17.40;11.20;;;;;;;16.06;100.00;96623.12;270659;1272;22530;-82
2023/10/20 12:01:20;;;;;;;17.70;11.80;;;;;;;15.96;100.00;96616.19;271802;1261;22552;-82
2023/10/20 12:07:22;;;;;;;19.90;11.90;;;;;;;15.93;100.00;96608.46;271288;1272;22554;-82
2023/10/20 12:13:26;;;;;;;27.50;14.50;;;;;;;15.94;100.00;96604.84;271863;1272;22333;-83
2023/10/20 12:19:28;;;;;;;21.80;13.30;;;;;;;15.99;100.00;96599.88;272632;1272;22212;-82
2023/10/20 12:25:31;;;;;;;17.30;11.80;;;;;;;16.06;100.00;96588.13;272483;1272;22867;-82
2023/10/20 12:31:33;;;;;;;21.30;12.90;;;;;;;16.14;100.00;96567.04;272286;1272;23447;-83
2023/10/20 12:37:40;;;;;;;17.50;11.60;;;;;;;16.27;100.00;96556.84;272511;1272;23718;-83
2023/10/20 12:43:47;;;;;;;15.90;10.60;;;;;;;16.41;100.00;96550.45;272442;1272;22274;-83
2023/10/20 12:49:54;;;;;;;24.20;12.30;;;;;;;16.48;100.00;96538.13;272890;1275;22240;-82
2023/10/20 12:55:56;;;;;;;18.10;11.80;;;;;;;16.56;100.00;96523.85;272279;1272;22182;-82
2023/10/20 13:01:58;;;;;;;14.50;10.30;;;;;;;16.65;100.00;96514.59;272131;1272;23195;-82
2023/10/20 13:08:00;;;;;;;18.20;10.50;;;;;;;16.77;100.00;96512.61;272171;1272;22292;-81
2023/10/20 13:14:02;;;;;;;20.00;10.70;;;;;;;16.88;100.00;96515.33;272612;1272;22275;-81
2023/10/20 13:20:05;;;;;;;17.40;9.70;;;;;;;17.09;100.00;96507.20;272659;1272;23719;-82
2023/10/20 13:26:11;;;;;;;16.30;9.30;;;;;;;17.36;100.00;96517.25;272212;1272;22384;-82
2023/10/20 13:32:12;;;;;;;15.90;8.10;;;;;;;17.55;100.00;96534.73;272970;1272;22204;-82
2023/10/20 13:38:14;;;;;;;12.50;8.60;;;;;;;17.65;100.00;96542.27;273108;1271;23399;-82
2023/10/20 13:44:16;;;;;;;13.90;9.10;;;;;;;17.65;100.00;96546.56;272839;1272;22345;-81
2023/10/20 13:50:18;;;;;;;19.70;8.90;;;;;;;17.66;100.00;96540.13;272456;1272;22407;-82
2023/10/20 13:56:20;;;;;;;41.80;20.10;;;;;;;17.69;100.00;96536.55;272577;1272;22376;-81
2023/10/20 14:02:22;;;;;;;18.40;10.20;;;;;;;17.75;100.00;96545.14;272801;1272;23679;-84
2023/10/20 14:08:24;;;;;;;16.70;8.30;;;;;;;17.84;100.00;96543.77;272724;1272;23496;-82
2023/10/20 14:14:26;;;;;;;16.40;8.70;;;;;;;17.93;100.00;96538.17;272398;1272;22467;-82
2023/10/20 14:20:31;;;;;;;14.10;6.30;;;;;;;17.98;100.00;96531.15;272439;1270;22305;-82
2023/10/20 14:26:33;;;;;;;9.70;4.80;;;;;;;18.14;100.00;96521.84;272708;1272;22208;-83
2023/10/20 14:32:35;;;;;;;15.20;6.80;;;;;;;18.37;100.00;96525.98;272900;1272;22372;-83
2023/10/20 14:38:37;;;;;;;11.40;5.10;;;;;;;18.35;100.00;96535.22;272737;1273;22408;-82
2023/10/20 14:44:40;;;;;;;9.80;4.60;;;;;;;18.15;100.00;96529.52;272531;1272;22408;-83
2023/10/20 14:50:44;;;;;;;13.20;5.20;;;;;;;18.05;100.00;96521.58;272837;1270;23529;-82
2023/10/20 14:56:47;;;;;;;9.00;4.60;;;;;;;17.96;100.00;96522.45;272601;1272;23058;-81
2023/10/20 15:02:51;;;;;;;15.40;4.50;;;;;;;17.79;100.00;96522.32;272553;1272;22304;-82
2023/10/20 15:08:57;;;;;;;11.00;5.30;;;;;;;17.66;100.00;96530.17;272553;1272;22456;-82
2023/10/20 15:14:59;;;;;;;12.00;6.00;;;;;;;17.52;100.00;96533.38;272510;1271;23476;-81
2023/10/20 15:21:05;;;;;;;16.00;5.60;;;;;;;17.37;100.00;96534.36;272643;1272;22404;-82
2023/10/20 15:27:08;;;;;;;14.00;5.70;;;;;;;17.23;100.00;96535.67;272708;1272;22199;-82
2023/10/20 15:33:16;;;;;;;14.40;6.60;;;;;;;17.05;100.00;96535.33;272395;1271;22415;-82
2023/10/20 15:39:18;;;;;;;16.30;6.50;;;;;;;16.87;100.00;96538.16;272385;1272;22393;-83
2023/10/20 15:45:20;;;;;;;15.20;7.00;;;;;;;16.71;100.00;96543.55;272297;1261;23449;-82
2023/10/20 15:51:23;;;;;;;19.50;6.80;;;;;;;16.55;100.00;96547.89;272372;1272;286010;-83
2023/10/20 15:57:25;;;;;;;18.20;6.80;;;;;;;16.38;100.00;96550.23;272865;1272;22388;-83
2023/10/20 16:03:28;;;;;;;26.50;12.30;;;;;;;16.13;100.00;96552.56;272804;1272;22293;-82
2023/10/20 16:09:30;;;;;;;30.30;12.50;;;;;;;15.91;100.00;96560.61;272939;1272;23197;-83
2023/10/20 16:15:32;;;;;;;37.30;17.40;;;;;;;15.74;100.00;96567.12;272558;1273;22476;-83
2023/10/20 16:21:35;;;;;;;43.40;22.50;;;;;;;15.55;100.00;96564.69;272361;1274;22341;-82
2023/10/20 16:27:39;;;;;;;30.80;15.20;;;;;;;15.41;100.00;96566.20;272214;1273;22439;-83
2023/10/20 16:33:42;;;;;;;23.30;10.00;;;;;;;15.33;100.00;96566.17;272314;1273;23370;-82
2023/10/20 16:39:44;;;;;;;22.70;9.50;;;;;;;15.26;100.00;96566.95;264795;1273;10002252;-81
2023/10/20 16:45:46;;;;;;;32.40;13.50;;;;;;;15.19;100.00;96572.02;272306;1273;22264;-82
2023/10/20 16:51:52;;;;;;;22.40;12.10;;;;;;;15.15;100.00;96579.35;272341;1273;22370;-82
2023/10/20 16:57:54;;;;;;;28.70;16.20;;;;;;;15.09;100.00;96583.20;272169;1271;22540;-82
2023/10/20 17:03:56;;;;;;;25.30;14.60;;;;;;;14.98;100.00;96589.73;271167;1273;22623;-82
2023/10/20 17:09:58;;;;;;;22.90;12.40;;;;;;;14.92;100.00;96590.41;271124;1274;23607;-82
2023/10/20 17:16:06;;;;;;;29.30;16.30;;;;;;;14.82;100.00;96591.14;272564;1273;22281;-81
2023/10/20 17:22:20;;;;;;;41.90;20.40;;;;;;;14.77;100.00;96579.64;272101;1267;23804;-82
2023/10/20 17:28:22;;;;;;;43.30;23.60;;;;;;;14.74;100.00;96574.69;272662;1274;22280;-82
2023/10/20 17:34:26;;;;;;;19.80;10.60;;;;;;;14.72;100.00;96562.23;272670;1274;22250;-83
2023/10/20 17:40:28;;;;;;;25.30;11.60;;;;;;;14.58;100.00;96558.08;272497;1274;23466;-82
2023/10/20 17:46:30;;;;;;;25.90;12.80;;;;;;;14.37;100.00;96563.85;272466;1273;22298;-82
2023/10/20 17:52:32;;;;;;;27.00;12.40;;;;;;;14.34;100.00;96571.67;272414;1272;22628;-82
2023/10/20 17:58:44;;;;;;;29.90;14.10;;;;;;;14.38;100.00;96570.73;271984;1274;22497;-82
2023/10/20 18:04:45;;;;;;;25.50;11.70;;;;;;;14.41;100.00;96576.33;272161;1271;23305;-82
2023/10/20 18:10:48;;;;;;;24.40;12.40;;;;;;;14.55;100.00;96578.11;272804;1273;22300;-83
2023/10/20 18:17:14;;;;;;;23.20;12.50;;;;;;;14.67;100.00;96584.57;272316;1274;23431;-83
2023/10/20 18:23:22;;;;;;;29.30;12.50;;;;;;;14.71;100.00;96593.35;272106;1272;23777;-83
2023/10/20 18:29:34;;;;;;;23.00;11.90;;;;;;;14.71;100.00;96597.24;272286;1273;22407;-83
2023/10/20 18:35:36;;;;;;;27.60;14.00;;;;;;;14.70;100.00;96606.52;272272;1260;22479;-83
2023/10/20 18:41:42;;;;;;;29.50;13.50;;;;;;;14.80;100.00;96613.12;272543;1274;22175;-82
2023/10/20 18:47:46;;;;;;;24.00;13.90;;;;;;;14.95;100.00;96612.48;272418;1277;22527;-83
2023/10/20 18:53:55;;;;;;;25.00;12.60;;;;;;;15.11;100.00;96613.80;272348;1275;23613;-84
2023/10/20 19:00:02;;;;;;;28.30;12.20;;;;;;;15.07;100.00;96621.46;272407;1273;22533;-82
2023/10/20 19:06:12;;;;;;;21.80;11.10;;;;;;;15.03;100.00;96628.71;272393;1273;22383;-83
2023/10/20 19:12:15;;;;;;;23.40;10.90;;;;;;;15.00;100.00;96633.25;272029;1272;22459;-85
2023/10/20 19:18:20;;;;;;;29.90;11.50;;;;;;;15.05;100.00;96637.35;272327;1268;23722;-83
2023/10/20 19:24:26;;;;;;;26.50;11.10;;;;;;;15.06;100.00;96636.44;272486;1274;23760;-83
2023/10/20 19:30:30;;;;;;;33.40;14.60;;;;;;;15.13;100.00;96639.13;272550;1276;22191;-82
2023/10/20 19:36:33;;;;;;;50.70;18.20;;;;;;;15.26;100.00;96637.05;272161;1274;22259;-81
2023/10/20 19:42:38;;;;;;;41.90;18.90;;;;;;;15.46;100.00;96635.55;272454;1273;22470;-83
2023/10/20 19:48:40;;;;;;;40.70;16.70;;;;;;;15.59;100.00;96634.32;272103;1272;22425;-82
2023/10/20 19:54:45;;;;;;;41.70;16.40;;;;;;;15.54;100.00;96638.15;272531;1275;22254;-82
2023/10/20 20:00:51;;;;;;;43.20;16.00;;;;;;;15.48;100.00;96630.88;272207;1272;23402;-83
2023/10/20 20:06:54;;;;;;;35.90;14.50;;;;;;;15.44;100.00;96623.52;272434;1271;23641;-82
2023/10/20 20:13:01;;;;;;;33.60;12.90;;;;;;;15.40;100.00;96620.66;271853;1273;23495;-83
2023/10/20 20:19:07;;;;;;;30.90;12.30;;;;;;;15.38;100.00;96613.03;270983;1274;22443;-82
2023/10/20 20:25:16;;;;;;;25.80;10.10;;;;;;;15.32;100.00;96613.55;271187;1273;22443;-82
2023/10/20 20:31:19;;;;;;;27.00;10.50;;;;;;;15.18;100.00;96616.95;271041;1273;23058;-82
2023/10/20 20:37:23;;;;;;;27.00;11.20;;;;;;;15.06;100.00;96624.80;270589;1274;23428;-83
2023/10/20 20:43:25;;;;;;;30.30;12.20;;;;;;;14.95;100.00;96628.20;272432;1272;23655;-83
2023/10/20 20:49:27;;;;;;;27.40;11.50;;;;;;;14.86;100.00;96625.55;272555;1272;22222;-81
2023/10/20 20:55:29;;;;;;;27.40;12.50;;;;;;;14.76;100.00;96634.78;272389;1275;22387;-82
2023/10/20 21:01:31;;;;;;;35.60;14.30;;;;;;;14.67;100.00;96641.20;272314;1275;22215;-81
2023/10/20 21:07:33;;;;;;;23.90;13.10;;;;;;;14.63;100.00;96645.63;272609;1273;23234;-82
2023/10/20 21:13:36;;;;;;;32.00;13.10;;;;;;;14.59;100.00;96650.53;272388;1274;22368;-81
2023/10/20 21:19:39;;;;;;;32.40;13.10;;;;;;;14.53;100.00;96650.30;272468;1274;23492;-81
2023/10/20 21:25:41;;;;;;;30.30;13.60;;;;;;;14.50;100.00;96649.26;272582;1274;22279;-82
2023/10/20 21:31:43;;;;;;;27.80;12.70;;;;;;;14.43;100.00;96651.41;272201;1274;22230;-82
2023/10/20 21:37:45;;;;;;;31.20;13.40;;;;;;;14.34;100.00;96646.29;272555;1275;22233;-81
2023/10/20 21:43:47;;;;;;;25.00;12.40;;;;;;;14.27;100.00;96649.80;272338;1274;22367;-82
2023/10/20 21:49:49;;;;;;;37.30;16.20;;;;;;;14.19;100.00;96646.30;272492;1273;23300;-81
2023/10/20 21:56:01;;;;;;;31.40;14.20;;;;;;;14.15;100.00;96646.33;271874;1273;22589;-81
2023/10/20 22:02:03;;;;;;;41.10;21.10;;;;;;;14.10;100.00;96662.02;271967;1274;23579;-81
2023/10/20 22:08:05;;;;;;;33.80;16.90;;;;;;;14.10;100.00;96673.02;272481;1275;22380;-82
2023/10/20 22:14:07;;;;;;;20.10;11.50;;;;;;;14.05;100.00;96672.83;272506;1273;22504;-81
2023/10/20 22:20:09;;;;;;;30.20;12.00;;;;;;;13.96;100.00;96667.20;272509;1273;22183;-81
2023/10/20 22:26:12;;;;;;;25.80;12.60;;;;;;;13.95;100.00;96670.36;272684;1272;23115;-82
2023/10/20 22:32:16;;;;;;;25.50;12.60;;;;;;;14.00;100.00;96675.85;272577;1274;22373;-82
2023/10/20 22:38:19;;;;;;;27.00;11.40;;;;;;;14.06;100.00;96679.47;272363;1275;22681;-82
